createdAt,value
2024-04-25T00:02:28.108Z,16.62
2024-04-25T00:05:18.757Z,16.17
2024-04-25T00:08:09.878Z,16.04
2024-04-25T00:10:59.600Z,16.22
2024-04-25T00:13:49.611Z,16.54
2024-04-25T00:16:43.366Z,16.29
2024-04-25T00:19:37.391Z,16.25
2024-04-25T00:22:27.191Z,16.11
2024-04-25T00:25:17.641Z,16.42
2024-04-25T00:28:08.483Z,16.38
2024-04-25T00:30:58.494Z,16.29
2024-04-25T00:33:49.133Z,15.79
2024-04-25T00:36:41.827Z,16.15
2024-04-25T00:39:32.337Z,16.17
2024-04-25T00:42:26.655Z,16.28
2024-04-25T00:45:16.989Z,16.64
2024-04-25T00:48:09.760Z,15.98
2024-04-25T00:51:00.679Z,16.66
2024-04-25T00:53:53.056Z,16.58
2024-04-25T00:56:45.080Z,16.77
2024-04-25T00:59:36.163Z,16.54
2024-04-25T01:02:28.528Z,16.86
2024-04-25T01:05:19.019Z,16.75
2024-04-25T01:08:10.111Z,17.00
2024-04-25T01:11:03.034Z,17.39
2024-04-25T01:13:53.564Z,16.40
2024-04-25T01:16:44.080Z,16.73
2024-04-25T01:19:35.333Z,17.30
2024-04-25T01:22:27.428Z,17.53
2024-04-25T01:25:22.285Z,17.47
2024-04-25T01:28:12.900Z,17.45
2024-04-25T01:31:03.877Z,17.21
2024-04-25T01:33:56.072Z,17.32
2024-04-25T01:36:46.312Z,16.98
2024-04-25T01:39:36.615Z,16.59
2024-04-25T01:42:29.430Z,16.92
2024-04-25T01:45:19.690Z,16.45
2024-04-25T01:48:11.238Z,16.50
2024-04-25T01:51:01.673Z,16.42
2024-04-25T01:53:52.271Z,16.81
2024-04-25T01:56:42.603Z,16.57
2024-04-25T01:59:35.519Z,16.84
2024-04-25T02:02:25.443Z,16.36
2024-04-25T02:05:15.526Z,16.37
2024-04-25T02:08:05.721Z,16.51
2024-04-25T02:10:56.991Z,16.71
2024-04-25T02:13:57.071Z,16.23
2024-04-25T02:16:58.177Z,16.18
2024-04-25T02:19:53.571Z,15.83
2024-04-25T02:22:58.184Z,16.20
2024-04-25T02:25:48.732Z,16.10
2024-04-25T02:28:39.886Z,15.92
2024-04-25T02:31:33.231Z,15.20
2024-04-25T02:34:28.420Z,16.26
2024-04-25T02:37:18.760Z,16.34
2024-04-25T02:40:10.190Z,15.62
2024-04-25T02:43:01.182Z,16.10
2024-04-25T02:45:51.569Z,16.48
2024-04-25T02:48:40.813Z,17.02
2024-04-25T02:51:33.348Z,17.04
2024-04-25T02:54:20.643Z,16.88
2024-04-25T02:57:11.260Z,16.93
2024-04-25T02:59:58.543Z,16.83
2024-04-25T03:02:48.735Z,17.01
2024-04-25T03:05:41.328Z,17.86
2024-04-25T03:08:34.333Z,17.69
2024-04-25T03:11:23.026Z,17.15
2024-04-25T03:14:12.993Z,17.34
2024-04-25T03:17:00.913Z,16.90
2024-04-25T03:19:50.327Z,17.06
2024-04-25T03:22:37.650Z,17.05
2024-04-25T03:25:31.177Z,17.48
2024-04-25T03:28:19.803Z,17.79
2024-04-25T03:31:10.514Z,17.72
2024-04-25T03:34:00.829Z,17.57
2024-04-25T03:36:52.266Z,17.67
2024-04-25T03:39:42.834Z,18.33
2024-04-25T03:42:36.400Z,18.55
2024-04-25T03:45:29.158Z,18.19
2024-04-25T03:48:20.631Z,18.40
2024-04-25T03:51:12.025Z,18.47
2024-04-25T03:54:02.634Z,18.87
2024-04-25T03:56:53.303Z,18.90
2024-04-25T03:59:53.261Z,18.98
2024-04-25T04:02:45.434Z,18.93
2024-04-25T04:05:37.524Z,19.07
2024-04-25T04:08:29.752Z,18.85
2024-04-25T04:11:23.591Z,18.42
2024-04-25T04:14:15.130Z,18.01
2024-04-25T04:17:08.023Z,19.12
2024-04-25T04:19:57.873Z,18.74
2024-04-25T04:22:47.988Z,18.97
2024-04-25T04:25:38.573Z,19.25
2024-04-25T04:28:28.877Z,18.84
2024-04-25T04:31:22.462Z,18.68
2024-04-25T04:34:15.669Z,19.22
2024-04-25T04:37:07.331Z,19.56
2024-04-25T04:40:00.868Z,19.11
2024-04-25T04:42:51.303Z,19.72
2024-04-25T04:45:42.756Z,20.06
2024-04-25T04:48:35.348Z,20.13
2024-04-25T04:51:32.355Z,20.26
2024-04-25T04:54:22.865Z,20.29
2024-04-25T04:57:14.880Z,20.37
2024-04-25T05:00:07.667Z,20.52
2024-04-25T05:02:58.495Z,21.01
2024-04-25T05:05:49.167Z,19.66
2024-04-25T05:08:43.232Z,19.87
2024-04-25T05:11:33.825Z,19.91
2024-04-25T05:14:24.131Z,20.31
2024-04-25T05:17:15.995Z,20.86
2024-04-25T05:20:07.223Z,20.45
2024-04-25T05:22:57.910Z,20.97
2024-04-25T05:25:51.511Z,21.02
2024-04-25T05:28:42.595Z,21.63
2024-04-25T05:31:34.206Z,21.13
2024-04-25T05:34:25.717Z,20.27
2024-04-25T05:37:16.634Z,20.36
2024-04-25T05:40:10.500Z,20.75
2024-04-25T05:43:03.221Z,20.72
2024-04-25T05:45:54.705Z,20.32
2024-04-25T05:48:46.999Z,20.01
2024-04-25T05:51:37.485Z,20.91
2024-04-25T05:54:31.679Z,20.37
2024-04-25T05:57:22.862Z,20.01
2024-04-25T06:00:16.164Z,20.95
2024-04-25T06:03:06.215Z,20.94
2024-04-25T06:05:58.168Z,20.80
2024-04-25T06:08:57.266Z,21.24
2024-04-25T06:11:53.767Z,20.77
2024-04-25T06:14:44.981Z,21.57
2024-04-25T06:17:38.672Z,21.67
2024-04-25T06:20:31.402Z,20.84
2024-04-25T06:23:23.644Z,20.66
2024-04-25T06:26:25.143Z,20.63
2024-04-25T06:29:17.753Z,20.67
2024-04-25T06:32:08.973Z,20.54
2024-04-25T06:35:16.740Z,21.00
2024-04-25T06:38:09.198Z,21.48
2024-04-25T06:41:00.727Z,21.63
2024-04-25T06:43:58.243Z,20.70
2024-04-25T06:46:52.661Z,21.68
2024-04-25T06:49:43.025Z,21.77
2024-04-25T06:52:36.407Z,21.83
2024-04-25T06:55:36.373Z,22.23
2024-04-25T06:58:27.511Z,21.35
2024-04-25T07:01:19.340Z,22.33
2024-04-25T07:04:10.315Z,22.77
2024-04-25T07:07:03.088Z,23.36
2024-04-25T07:09:59.650Z,23.36
2024-04-25T07:12:55.983Z,22.53
2024-04-25T07:15:49.908Z,22.65
2024-04-25T07:18:42.990Z,22.78
2024-04-25T07:21:35.157Z,24.41
2024-04-25T07:24:25.905Z,25.76
2024-04-25T07:27:20.472Z,26.15
2024-04-25T07:30:13.158Z,25.95
2024-04-25T07:33:04.874Z,25.85
2024-04-25T07:35:56.326Z,26.33
2024-04-25T07:38:46.742Z,26.62
2024-04-25T07:41:37.442Z,26.82
2024-04-25T07:44:34.576Z,26.52
2024-04-25T07:47:26.177Z,26.87
2024-04-25T07:50:17.661Z,26.50
2024-04-25T07:53:11.391Z,26.61
2024-04-25T07:56:02.254Z,26.31
2024-04-25T07:58:58.215Z,26.88
2024-04-25T08:01:54.310Z,26.47
2024-04-25T08:04:46.779Z,26.19
2024-04-25T08:07:47.814Z,25.42
2024-04-25T08:10:39.746Z,25.68
2024-04-25T08:13:30.964Z,25.92
2024-04-25T08:16:22.272Z,27.40
2024-04-25T08:19:16.531Z,27.63
2024-04-25T08:22:16.294Z,26.14
2024-04-25T08:25:11.861Z,25.99
2024-04-25T08:28:07.004Z,26.95
2024-04-25T08:31:01.925Z,27.20
2024-04-25T08:33:53.817Z,26.94
2024-04-25T08:36:48.452Z,26.82
2024-04-25T08:39:39.318Z,26.86
2024-04-25T08:42:35.911Z,26.66
2024-04-25T08:45:27.439Z,25.63
2024-04-25T08:48:23.130Z,26.08
2024-04-25T08:51:18.737Z,26.12
2024-04-25T08:54:13.869Z,26.21
2024-04-25T08:57:06.384Z,26.01
2024-04-25T08:59:58.605Z,26.72
2024-04-25T09:02:54.218Z,27.49
2024-04-25T09:05:45.379Z,27.62
2024-04-25T09:08:38.986Z,27.10
2024-04-25T09:11:35.457Z,28.61
2024-04-25T09:14:26.677Z,28.22
2024-04-25T09:17:18.763Z,28.85
2024-04-25T09:20:33.073Z,28.82
2024-04-25T09:23:25.615Z,28.42
2024-04-25T09:26:18.632Z,28.42
2024-04-25T09:29:13.455Z,28.71
2024-04-25T09:32:06.517Z,29.56
2024-04-25T09:35:04.030Z,29.16
2024-04-25T09:38:01.298Z,29.12
2024-04-25T09:40:53.639Z,30.11
2024-04-25T09:43:46.118Z,29.65
2024-04-25T09:46:44.455Z,30.05
2024-04-25T09:49:40.032Z,29.60
2024-04-25T09:52:35.543Z,27.85
2024-04-25T09:55:35.126Z,27.03
2024-04-25T09:58:36.582Z,27.97
2024-04-25T10:01:30.588Z,27.69
2024-04-25T10:04:26.309Z,28.27
2024-04-25T10:07:20.686Z,29.24
2024-04-25T10:10:12.738Z,29.61
2024-04-25T10:13:06.913Z,29.85
2024-04-25T10:16:01.136Z,29.91
2024-04-25T10:18:59.443Z,30.65
2024-04-25T10:21:53.788Z,30.45
2024-04-25T10:24:50.481Z,30.92
2024-04-25T10:27:41.384Z,31.22
2024-04-25T10:30:34.787Z,30.59
2024-04-25T10:33:25.150Z,30.42
2024-04-25T10:36:19.631Z,29.25
2024-04-25T10:39:18.149Z,29.02
2024-04-25T10:42:18.256Z,29.42
2024-04-25T10:45:09.657Z,29.26
2024-04-25T10:48:01.323Z,29.35
2024-04-25T10:50:53.594Z,29.51
2024-04-25T10:53:44.599Z,28.80
2024-04-25T10:56:42.284Z,29.51
2024-04-25T10:59:33.463Z,29.98
2024-04-25T11:02:24.614Z,31.35
2024-04-25T11:05:15.451Z,31.06
2024-04-25T11:08:07.346Z,30.24
2024-04-25T11:11:01.118Z,29.53
2024-04-25T11:13:56.263Z,30.31
2024-04-25T11:16:47.227Z,30.31
2024-04-25T11:19:43.493Z,29.68
2024-04-25T11:22:45.542Z,29.38
2024-04-25T11:25:49.765Z,27.97
2024-04-25T11:28:42.650Z,28.04
2024-04-25T11:31:38.282Z,27.65
2024-04-25T11:34:29.773Z,28.03
2024-04-25T11:37:20.801Z,27.58
2024-04-25T11:40:12.569Z,27.42
2024-04-25T11:43:04.060Z,28.22
2024-04-25T11:46:01.393Z,27.14
2024-04-25T11:49:06.650Z,27.98
2024-04-25T11:51:59.546Z,26.28
2024-04-25T11:55:13.637Z,24.96
2024-04-25T11:58:04.235Z,25.86
2024-04-25T12:00:57.987Z,25.76
2024-04-25T12:03:55.816Z,25.12
2024-04-25T12:06:54.331Z,25.94
2024-04-25T12:09:47.729Z,25.28
2024-04-25T12:12:44.197Z,24.95
2024-04-25T12:15:36.274Z,24.00
2024-04-25T12:18:32.052Z,24.32
2024-04-25T12:21:28.551Z,24.90
2024-04-25T12:24:19.780Z,24.72
2024-04-25T12:27:10.434Z,23.97
2024-04-25T12:30:01.869Z,23.87
2024-04-25T12:33:01.080Z,20.22
2024-04-25T12:35:51.439Z,22.60
2024-04-25T12:38:53.466Z,23.90
2024-04-25T12:41:46.521Z,22.13
2024-04-25T12:44:39.406Z,24.02
2024-04-25T12:47:32.176Z,24.38
2024-04-25T12:50:23.586Z,25.01
2024-04-25T12:53:17.947Z,24.19
2024-04-25T12:56:15.612Z,25.56
2024-04-25T12:59:06.692Z,23.18
2024-04-25T13:01:58.501Z,22.73
2024-04-25T13:04:54.181Z,23.50
2024-04-25T13:07:47.772Z,23.32
2024-04-25T13:10:45.140Z,23.23
2024-04-25T13:13:39.183Z,24.93
2024-04-25T13:16:33.474Z,25.75
2024-04-25T13:19:24.221Z,27.65
2024-04-25T13:22:15.005Z,25.90
2024-04-25T13:25:06.070Z,25.12
2024-04-25T13:27:57.375Z,25.43
2024-04-25T13:30:53.318Z,23.70
2024-04-25T13:33:44.754Z,23.24
2024-04-25T13:36:39.414Z,23.03
2024-04-25T13:39:31.208Z,22.67
2024-04-25T13:42:24.061Z,23.72
2024-04-25T13:45:15.470Z,22.69
2024-04-25T13:48:10.444Z,22.81
2024-04-25T13:51:01.966Z,23.28
2024-04-25T13:53:53.671Z,22.98
2024-04-25T13:56:44.747Z,23.92
2024-04-25T13:59:36.054Z,24.35
2024-04-25T14:02:27.304Z,22.20
2024-04-25T14:05:25.022Z,22.81
2024-04-25T14:08:15.038Z,21.80
2024-04-25T14:11:05.568Z,21.71
2024-04-25T14:14:04.171Z,22.89
2024-04-25T14:16:54.387Z,22.49
2024-04-25T14:19:50.474Z,23.07
2024-04-25T14:22:47.562Z,23.88
2024-04-25T14:25:55.644Z,23.90
2024-04-25T14:28:54.149Z,24.80
2024-04-25T14:31:44.913Z,24.63
2024-04-25T14:34:36.706Z,25.83
2024-04-25T14:37:27.513Z,25.54
2024-04-25T14:40:26.833Z,25.69
2024-04-25T14:43:17.889Z,28.82
2024-04-25T14:46:08.387Z,28.22
2024-04-25T14:48:59.139Z,28.43
2024-04-25T14:51:50.649Z,26.38
2024-04-25T14:54:42.324Z,24.10
2024-04-25T14:57:35.242Z,22.95
2024-04-25T15:00:26.718Z,22.97
2024-04-25T15:03:20.072Z,22.73
2024-04-25T15:06:11.608Z,23.00
2024-04-25T15:09:03.171Z,21.86
2024-04-25T15:12:07.081Z,22.50
2024-04-25T15:15:11.537Z,23.26
2024-04-25T15:18:06.190Z,23.57
2024-04-25T15:20:57.005Z,21.90
2024-04-25T15:23:47.477Z,21.88
2024-04-25T15:26:43.332Z,22.12
2024-04-25T15:29:37.119Z,22.65
2024-04-25T15:32:35.565Z,23.23
2024-04-25T15:35:26.344Z,22.20
2024-04-25T15:38:21.639Z,21.56
2024-04-25T15:41:13.113Z,22.20
2024-04-25T15:44:04.656Z,23.40
2024-04-25T15:46:56.138Z,21.32
2024-04-25T15:49:50.264Z,21.44
2024-04-25T15:52:51.319Z,20.97
2024-04-25T15:55:42.784Z,22.04
2024-04-25T15:58:37.164Z,22.22
2024-04-25T16:01:29.653Z,21.55
2024-04-25T16:04:23.408Z,22.14
2024-04-25T16:07:23.466Z,22.10
2024-04-25T16:10:22.512Z,21.45
2024-04-25T16:13:17.965Z,21.09
2024-04-25T16:16:11.668Z,21.62
2024-04-25T16:19:07.369Z,22.21
2024-04-25T16:22:06.229Z,22.93
2024-04-25T16:25:02.549Z,21.73
2024-04-25T16:27:56.682Z,21.86
2024-04-25T16:30:47.248Z,22.42
2024-04-25T16:33:38.945Z,21.70
2024-04-25T16:36:36.685Z,21.70
2024-04-25T16:39:39.246Z,21.58
2024-04-25T16:42:45.031Z,21.56
2024-04-25T16:45:38.139Z,21.35
2024-04-25T16:48:30.152Z,20.95
2024-04-25T16:51:20.557Z,21.15
2024-04-25T16:54:13.725Z,20.39
2024-04-25T16:57:05.809Z,20.42
2024-04-25T17:00:03.363Z,21.50
2024-04-25T17:02:54.961Z,20.51
2024-04-25T17:05:47.051Z,20.81
2024-04-25T17:08:37.721Z,20.53
2024-04-25T17:11:30.651Z,20.43
2024-04-25T17:14:22.106Z,20.46
2024-04-25T17:17:34.153Z,21.15
2024-04-25T17:20:30.665Z,20.83
2024-04-25T17:23:22.605Z,20.68
2024-04-25T17:26:14.983Z,20.42
2024-04-25T17:29:10.093Z,20.17
2024-04-25T17:32:03.249Z,20.29
2024-04-25T17:35:04.469Z,20.56
2024-04-25T17:38:08.141Z,20.44
2024-04-25T17:41:23.678Z,19.91
2024-04-25T17:44:18.427Z,19.36
2024-04-25T17:47:11.976Z,19.77
2024-04-25T17:50:11.980Z,20.16
2024-04-25T17:53:15.266Z,19.80
2024-04-25T17:56:07.146Z,19.86
2024-04-25T17:59:01.944Z,20.11
2024-04-25T18:01:57.861Z,20.19
2024-04-25T18:04:50.563Z,19.66
2024-04-25T18:07:44.790Z,20.27
2024-04-25T18:10:38.514Z,21.32
2024-04-25T18:13:35.222Z,20.35
2024-04-25T18:16:46.947Z,18.71
2024-04-25T18:19:44.912Z,19.55
2024-04-25T18:22:39.358Z,19.74
2024-04-25T18:25:35.821Z,19.47
2024-04-25T18:28:28.012Z,20.65
2024-04-25T18:31:25.211Z,20.19
2024-04-25T18:34:17.848Z,20.46
2024-04-25T18:37:09.687Z,20.57
2024-04-25T18:40:12.851Z,19.81
2024-04-25T18:43:10.115Z,19.85
2024-04-25T18:46:01.512Z,19.31
2024-04-25T18:48:53.245Z,19.76
2024-04-25T18:51:45.183Z,20.09
2024-04-25T18:54:38.367Z,20.65
2024-04-25T18:57:29.495Z,21.18
2024-04-25T19:00:25.891Z,20.46
2024-04-25T19:03:20.761Z,20.38
2024-04-25T19:06:17.796Z,19.79
2024-04-25T19:09:12.891Z,20.39
2024-04-25T19:12:07.393Z,20.00
2024-04-25T19:15:02.290Z,20.31
2024-04-25T19:18:09.714Z,20.45
2024-04-25T19:21:08.727Z,20.34
2024-04-25T19:24:01.301Z,20.06
2024-04-25T19:27:00.480Z,19.81
2024-04-25T19:29:58.829Z,19.69
2024-04-25T19:32:50.609Z,19.84
2024-04-25T19:35:45.906Z,19.53
2024-04-25T19:38:38.074Z,19.11
2024-04-25T19:41:30.696Z,19.26
2024-04-25T19:44:33.629Z,19.95
2024-04-25T19:47:32.516Z,20.24
2024-04-25T19:54:00.326Z,19.82
2024-04-25T19:56:58.567Z,19.72
2024-04-25T19:59:54.217Z,19.86
2024-04-25T20:03:02.947Z,20.04
2024-04-25T20:06:02.684Z,19.67
2024-04-25T20:08:55.717Z,19.02
2024-04-25T20:11:51.139Z,19.62
2024-04-25T20:14:46.667Z,19.57
2024-04-25T20:18:00.830Z,19.86
2024-04-25T20:21:08.758Z,19.70
2024-04-25T20:24:03.860Z,19.72
2024-04-25T20:26:58.895Z,19.81
2024-04-25T20:29:57.533Z,19.84
2024-04-25T20:32:51.734Z,19.62
2024-04-25T20:35:56.301Z,19.61
2024-04-25T20:38:47.370Z,18.98
2024-04-25T20:41:38.265Z,19.46
2024-04-25T20:44:31.466Z,19.75
2024-04-25T20:47:22.112Z,19.29
2024-04-25T20:50:12.768Z,19.74
2024-04-25T20:53:03.296Z,19.69
2024-04-25T20:55:54.445Z,19.31
2024-04-25T20:58:45.670Z,19.49
2024-04-25T21:01:43.290Z,19.66
2024-04-25T21:04:34.814Z,19.41
2024-04-25T21:07:25.049Z,18.86
2024-04-25T21:10:16.811Z,19.13
2024-04-25T21:13:08.244Z,19.41
2024-04-25T21:15:58.443Z,19.42
2024-04-25T21:18:51.146Z,19.06
2024-04-25T21:21:42.182Z,18.90
2024-04-25T21:24:33.116Z,19.22
2024-04-25T21:27:23.181Z,19.77
2024-04-25T21:30:13.527Z,19.87
2024-04-25T21:33:03.990Z,19.49
2024-04-25T21:35:56.759Z,19.61
2024-04-25T21:38:46.875Z,18.87
2024-04-25T21:41:41.672Z,19.29
2024-04-25T21:44:31.496Z,19.25
2024-04-25T21:47:21.599Z,20.19
2024-04-25T21:50:11.870Z,19.64
2024-04-25T21:53:07.754Z,19.55
2024-04-25T21:56:00.930Z,19.92
2024-04-25T21:58:51.874Z,19.84
2024-04-25T22:01:54.358Z,19.51
2024-04-25T22:04:44.884Z,19.71
2024-04-25T22:07:35.947Z,19.33
2024-04-25T22:10:29.083Z,20.28
2024-04-25T22:13:18.975Z,20.09
2024-04-25T22:16:11.139Z,19.57
2024-04-25T22:19:02.120Z,19.93
2024-04-25T22:21:55.467Z,19.99
2024-04-25T22:24:51.875Z,20.22
2024-04-25T22:27:45.051Z,19.91
2024-04-25T22:30:35.149Z,20.27
2024-04-25T22:33:25.018Z,20.53
2024-04-25T22:36:19.468Z,19.88
2024-04-25T22:39:11.372Z,19.00
2024-04-25T22:42:01.699Z,19.72
2024-04-25T22:44:58.666Z,19.64
2024-04-25T22:47:52.600Z,19.45
2024-04-25T22:50:43.303Z,19.49
2024-04-25T22:53:35.612Z,20.10
2024-04-25T22:56:31.709Z,19.80
2024-04-25T22:59:21.773Z,19.64
2024-04-25T23:02:14.816Z,19.77
2024-04-25T23:05:04.547Z,19.27
2024-04-25T23:07:54.683Z,19.15
2024-04-25T23:10:45.391Z,19.57
2024-04-25T23:13:38.186Z,19.27
2024-04-25T23:16:32.295Z,19.16
2024-04-25T23:19:25.848Z,18.59
2024-04-25T23:22:15.858Z,18.43
2024-04-25T23:25:05.580Z,18.79
2024-04-25T23:27:55.852Z,18.84
2024-04-25T23:30:48.571Z,18.99
2024-04-25T23:33:41.205Z,18.77
2024-04-25T23:36:33.976Z,18.78
2024-04-25T23:39:24.065Z,18.58
2024-04-25T23:42:13.670Z,18.75
2024-04-25T23:45:03.257Z,19.06
2024-04-25T23:47:52.942Z,19.23
2024-04-25T23:50:44.688Z,19.06
2024-04-25T23:53:37.156Z,18.41
2024-04-25T23:56:27.134Z,19.11
2024-04-25T23:59:18.037Z,18.82
